sensor_id;sensor_type;location;lat;lon;timestamp;P1;durP1;ratioP1;P2;durP2;ratioP2
26562;SDS011;14217;50.986;5.826;2023-11-21T00:03:30;0.35;;;0.32;;
26562;SDS011;14217;50.986;5.826;2023-11-21T00:08:33;0.73;;;0.57;;
26562;SDS011;14217;50.986;5.826;2023-11-21T00:13:35;0.55;;;0.50;;
26562;SDS011;14217;50.986;5.826;2023-11-21T00:18:37;0.95;;;0.73;;
26562;SDS011;14217;50.986;5.826;2023-11-21T00:23:39;0.70;;;0.70;;
26562;SDS011;14217;50.986;5.826;2023-11-21T00:28:42;0.77;;;0.50;;
26562;SDS011;14217;50.986;5.826;2023-11-21T00:33:45;0.70;;;0.60;;
26562;SDS011;14217;50.986;5.826;2023-11-21T00:38:46;0.63;;;0.52;;
26562;SDS011;14217;50.986;5.826;2023-11-21T00:43:50;0.43;;;0.43;;
26562;SDS011;14217;50.986;5.826;2023-11-21T00:48:52;1.27;;;0.82;;
26562;SDS011;14217;50.986;5.826;2023-11-21T00:53:55;0.82;;;0.82;;
26562;SDS011;14217;50.986;5.826;2023-11-21T00:58:57;1.10;;;0.60;;
26562;SDS011;14217;50.986;5.826;2023-11-21T01:03:59;0.80;;;0.65;;
26562;SDS011;14217;50.986;5.826;2023-11-21T01:09:02;0.50;;;0.50;;
26562;SDS011;14217;50.986;5.826;2023-11-21T01:14:09;0.95;;;0.57;;
26562;SDS011;14217;50.986;5.826;2023-11-21T01:19:12;0.93;;;0.65;;
26562;SDS011;14217;50.986;5.826;2023-11-21T01:24:14;0.60;;;0.55;;
26562;SDS011;14217;50.986;5.826;2023-11-21T01:29:16;1.08;;;0.85;;
26562;SDS011;14217;50.986;5.826;2023-11-21T01:34:18;0.73;;;0.65;;
26562;SDS011;14217;50.986;5.826;2023-11-21T01:39:20;0.60;;;0.60;;
26562;SDS011;14217;50.986;5.826;2023-11-21T01:44:25;0.98;;;0.73;;
26562;SDS011;14217;50.986;5.826;2023-11-21T01:49:27;1.17;;;0.60;;
26562;SDS011;14217;50.986;5.826;2023-11-21T01:54:30;2.75;;;0.80;;
26562;SDS011;14217;50.986;5.826;2023-11-21T01:59:35;0.73;;;0.73;;
26562;SDS011;14217;50.986;5.826;2023-11-21T02:04:44;0.93;;;0.93;;
26562;SDS011;14217;50.986;5.826;2023-11-21T02:09:46;1.98;;;0.88;;
26562;SDS011;14217;50.986;5.826;2023-11-21T02:14:49;1.02;;;0.68;;
26562;SDS011;14217;50.986;5.826;2023-11-21T02:19:52;0.63;;;0.63;;
26562;SDS011;14217;50.986;5.826;2023-11-21T02:24:54;0.73;;;0.45;;
26562;SDS011;14217;50.986;5.826;2023-11-21T02:29:56;0.80;;;0.57;;
26562;SDS011;14217;50.986;5.826;2023-11-21T02:35:00;0.90;;;0.60;;
26562;SDS011;14217;50.986;5.826;2023-11-21T02:40:03;1.33;;;0.60;;
26562;SDS011;14217;50.986;5.826;2023-11-21T02:45:08;1.40;;;0.70;;
26562;SDS011;14217;50.986;5.826;2023-11-21T02:50:14;0.50;;;0.50;;
26562;SDS011;14217;50.986;5.826;2023-11-21T02:55:16;0.68;;;0.57;;
26562;SDS011;14217;50.986;5.826;2023-11-21T03:00:18;1.55;;;0.80;;
26562;SDS011;14217;50.986;5.826;2023-11-21T03:05:20;1.23;;;0.85;;
26562;SDS011;14217;50.986;5.826;2023-11-21T03:10:23;0.70;;;0.70;;
26562;SDS011;14217;50.986;5.826;2023-11-21T03:15:25;1.05;;;0.40;;
26562;SDS011;14217;50.986;5.826;2023-11-21T03:20:28;4.55;;;0.60;;
26562;SDS011;14217;50.986;5.826;2023-11-21T03:25:30;1.05;;;0.75;;
26562;SDS011;14217;50.986;5.826;2023-11-21T03:30:32;0.73;;;0.73;;
26562;SDS011;14217;50.986;5.826;2023-11-21T03:35:34;0.82;;;0.57;;
26562;SDS011;14217;50.986;5.826;2023-11-21T03:40:37;1.30;;;0.70;;
26562;SDS011;14217;50.986;5.826;2023-11-21T03:45:39;1.23;;;0.50;;
26562;SDS011;14217;50.986;5.826;2023-11-21T03:50:42;1.08;;;1.00;;
26562;SDS011;14217;50.986;5.826;2023-11-21T03:55:44;0.77;;;0.70;;
26562;SDS011;14217;50.986;5.826;2023-11-21T04:00:47;0.88;;;0.88;;
26562;SDS011;14217;50.986;5.826;2023-11-21T04:05:50;1.25;;;0.90;;
26562;SDS011;14217;50.986;5.826;2023-11-21T04:10:52;1.15;;;0.90;;
26562;SDS011;14217;50.986;5.826;2023-11-21T04:15:55;1.48;;;0.90;;
26562;SDS011;14217;50.986;5.826;2023-11-21T04:20:57;0.70;;;0.70;;
26562;SDS011;14217;50.986;5.826;2023-11-21T04:26:00;1.10;;;0.80;;
26562;SDS011;14217;50.986;5.826;2023-11-21T04:31:03;1.27;;;0.70;;
26562;SDS011;14217;50.986;5.826;2023-11-21T04:36:06;1.52;;;0.80;;
26562;SDS011;14217;50.986;5.826;2023-11-21T04:41:08;2.03;;;1.27;;
26562;SDS011;14217;50.986;5.826;2023-11-21T04:46:11;1.42;;;0.82;;
26562;SDS011;14217;50.986;5.826;2023-11-21T04:51:13;1.60;;;1.10;;
26562;SDS011;14217;50.986;5.826;2023-11-21T04:56:15;1.33;;;0.90;;
26562;SDS011;14217;50.986;5.826;2023-11-21T05:01:17;1.30;;;1.20;;
26562;SDS011;14217;50.986;5.826;2023-11-21T05:06:20;1.52;;;0.90;;
26562;SDS011;14217;50.986;5.826;2023-11-21T05:11:28;1.35;;;0.90;;
26562;SDS011;14217;50.986;5.826;2023-11-21T05:16:30;2.30;;;1.00;;
26562;SDS011;14217;50.986;5.826;2023-11-21T05:21:33;1.40;;;1.30;;
26562;SDS011;14217;50.986;5.826;2023-11-21T05:26:35;1.48;;;0.98;;
26562;SDS011;14217;50.986;5.826;2023-11-21T05:31:38;1.23;;;1.13;;
26562;SDS011;14217;50.986;5.826;2023-11-21T05:36:42;1.42;;;1.33;;
26562;SDS011;14217;50.986;5.826;2023-11-21T05:41:45;1.70;;;1.00;;
26562;SDS011;14217;50.986;5.826;2023-11-21T05:46:50;1.77;;;1.25;;
26562;SDS011;14217;50.986;5.826;2023-11-21T05:51:53;2.05;;;1.13;;
26562;SDS011;14217;50.986;5.826;2023-11-21T05:56:55;1.48;;;1.35;;
26562;SDS011;14217;50.986;5.826;2023-11-21T06:01:57;2.38;;;1.30;;
26562;SDS011;14217;50.986;5.826;2023-11-21T06:07:00;2.10;;;1.30;;
26562;SDS011;14217;50.986;5.826;2023-11-21T06:12:03;1.50;;;1.10;;
26562;SDS011;14217;50.986;5.826;2023-11-21T06:17:05;1.90;;;1.13;;
26562;SDS011;14217;50.986;5.826;2023-11-21T06:22:07;1.67;;;1.30;;
26562;SDS011;14217;50.986;5.826;2023-11-21T06:27:10;1.92;;;1.20;;
26562;SDS011;14217;50.986;5.826;2023-11-21T06:32:12;1.45;;;1.20;;
26562;SDS011;14217;50.986;5.826;2023-11-21T06:37:15;1.77;;;1.58;;
26562;SDS011;14217;50.986;5.826;2023-11-21T06:42:18;1.88;;;1.30;;
26562;SDS011;14217;50.986;5.826;2023-11-21T06:47:24;2.60;;;1.45;;
26562;SDS011;14217;50.986;5.826;2023-11-21T06:52:27;16.40;;;1.50;;
26562;SDS011;14217;50.986;5.826;2023-11-21T06:57:29;3.20;;;1.27;;
26562;SDS011;14217;50.986;5.826;2023-11-21T07:02:31;6.85;;;2.80;;
26562;SDS011;14217;50.986;5.826;2023-11-21T07:07:34;1.70;;;1.45;;
26562;SDS011;14217;50.986;5.826;2023-11-21T07:12:37;2.92;;;1.98;;
26562;SDS011;14217;50.986;5.826;2023-11-21T07:17:39;14.85;;;1.90;;
26562;SDS011;14217;50.986;5.826;2023-11-21T07:22:42;2.75;;;2.20;;
26562;SDS011;14217;50.986;5.826;2023-11-21T07:27:44;2.55;;;2.08;;
26562;SDS011;14217;50.986;5.826;2023-11-21T07:32:46;3.00;;;2.28;;
26562;SDS011;14217;50.986;5.826;2023-11-21T07:37:49;4.65;;;2.78;;
26562;SDS011;14217;50.986;5.826;2023-11-21T07:42:51;3.92;;;2.20;;
26562;SDS011;14217;50.986;5.826;2023-11-21T07:47:54;6.72;;;3.97;;
26562;SDS011;14217;50.986;5.826;2023-11-21T07:52:57;4.93;;;3.25;;
26562;SDS011;14217;50.986;5.826;2023-11-21T07:57:59;7.15;;;2.65;;
26562;SDS011;14217;50.986;5.826;2023-11-21T08:03:01;7.70;;;3.20;;
26562;SDS011;14217;50.986;5.826;2023-11-21T08:08:04;2.42;;;1.70;;
26562;SDS011;14217;50.986;5.826;2023-11-21T08:13:06;6.30;;;2.42;;
26562;SDS011;14217;50.986;5.826;2023-11-21T08:18:10;4.25;;;3.53;;
26562;SDS011;14217;50.986;5.826;2023-11-21T08:23:16;3.90;;;2.67;;
26562;SDS011;14217;50.986;5.826;2023-11-21T08:28:18;5.60;;;2.45;;
26562;SDS011;14217;50.986;5.826;2023-11-21T08:33:21;6.07;;;5.28;;
26562;SDS011;14217;50.986;5.826;2023-11-21T08:38:23;7.75;;;4.63;;
26562;SDS011;14217;50.986;5.826;2023-11-21T08:43:25;6.20;;;4.88;;
26562;SDS011;14217;50.986;5.826;2023-11-21T08:48:29;5.80;;;3.72;;
26562;SDS011;14217;50.986;5.826;2023-11-21T08:53:31;6.25;;;4.28;;
26562;SDS011;14217;50.986;5.826;2023-11-21T08:58:34;4.95;;;4.47;;
26562;SDS011;14217;50.986;5.826;2023-11-21T09:03:38;5.05;;;3.60;;
26562;SDS011;14217;50.986;5.826;2023-11-21T09:08:46;5.65;;;4.38;;
26562;SDS011;14217;50.986;5.826;2023-11-21T09:13:48;3.70;;;3.30;;
26562;SDS011;14217;50.986;5.826;2023-11-21T09:18:51;4.85;;;3.25;;
26562;SDS011;14217;50.986;5.826;2023-11-21T09:23:53;4.38;;;3.53;;
26562;SDS011;14217;50.986;5.826;2023-11-21T09:28:55;3.22;;;2.38;;
26562;SDS011;14217;50.986;5.826;2023-11-21T09:33:58;3.58;;;2.80;;
26562;SDS011;14217;50.986;5.826;2023-11-21T09:39:00;4.22;;;2.75;;
26562;SDS011;14217;50.986;5.826;2023-11-21T09:44:04;3.83;;;3.13;;
26562;SDS011;14217;50.986;5.826;2023-11-21T09:49:12;3.03;;;2.58;;
26562;SDS011;14217;50.986;5.826;2023-11-21T09:54:15;2.47;;;2.25;;
26562;SDS011;14217;50.986;5.826;2023-11-21T09:59:19;2.90;;;2.45;;
26562;SDS011;14217;50.986;5.826;2023-11-21T10:04:22;3.20;;;2.90;;
26562;SDS011;14217;50.986;5.826;2023-11-21T10:09:25;4.30;;;2.30;;
26562;SDS011;14217;50.986;5.826;2023-11-21T10:14:28;3.53;;;2.42;;
26562;SDS011;14217;50.986;5.826;2023-11-21T10:19:31;2.65;;;2.42;;
26562;SDS011;14217;50.986;5.826;2023-11-21T10:24:34;3.20;;;2.75;;
26562;SDS011;14217;50.986;5.826;2023-11-21T10:29:51;2.80;;;1.98;;
26562;SDS011;14217;50.986;5.826;2023-11-21T10:34:56;3.10;;;2.35;;
26562;SDS011;14217;50.986;5.826;2023-11-21T10:39:59;3.33;;;1.98;;
26562;SDS011;14217;50.986;5.826;2023-11-21T10:45:01;2.75;;;2.13;;
26562;SDS011;14217;50.986;5.826;2023-11-21T10:50:07;1.90;;;1.63;;
26562;SDS011;14217;50.986;5.826;2023-11-21T10:55:19;2.38;;;2.05;;
26562;SDS011;14217;50.986;5.826;2023-11-21T11:00:23;2.30;;;1.83;;
26562;SDS011;14217;50.986;5.826;2023-11-21T11:05:27;1.90;;;1.80;;
26562;SDS011;14217;50.986;5.826;2023-11-21T11:10:34;1.52;;;1.40;;
26562;SDS011;14217;50.986;5.826;2023-11-21T11:15:36;2.58;;;2.10;;
26562;SDS011;14217;50.986;5.826;2023-11-21T11:20:39;2.42;;;1.58;;
26562;SDS011;14217;50.986;5.826;2023-11-21T11:36:22;2.05;;;1.70;;
26562;SDS011;14217;50.986;5.826;2023-11-21T11:41:31;2.55;;;1.85;;
26562;SDS011;14217;50.986;5.826;2023-11-21T11:46:40;1.88;;;1.52;;
26562;SDS011;14217;50.986;5.826;2023-11-21T11:52:20;1.77;;;1.58;;
26562;SDS011;14217;50.986;5.826;2023-11-21T11:57:31;2.35;;;1.55;;
26562;SDS011;14217;50.986;5.826;2023-11-21T12:02:36;4.00;;;1.88;;
26562;SDS011;14217;50.986;5.826;2023-11-21T12:07:46;1.77;;;1.67;;
26562;SDS011;14217;50.986;5.826;2023-11-21T12:12:50;2.20;;;1.65;;
26562;SDS011;14217;50.986;5.826;2023-11-21T12:17:56;1.83;;;1.70;;
26562;SDS011;14217;50.986;5.826;2023-11-21T12:23:02;1.75;;;1.50;;
26562;SDS011;14217;50.986;5.826;2023-11-21T12:28:04;1.77;;;1.50;;
26562;SDS011;14217;50.986;5.826;2023-11-21T12:33:07;1.90;;;1.48;;
26562;SDS011;14217;50.986;5.826;2023-11-21T12:38:11;2.15;;;1.80;;
26562;SDS011;14217;50.986;5.826;2023-11-21T12:43:13;2.92;;;1.70;;
26562;SDS011;14217;50.986;5.826;2023-11-21T12:48:15;2.03;;;1.70;;
26562;SDS011;14217;50.986;5.826;2023-11-21T12:53:24;2.03;;;1.85;;
26562;SDS011;14217;50.986;5.826;2023-11-21T12:58:27;1.63;;;1.50;;
26562;SDS011;14217;50.986;5.826;2023-11-21T13:03:30;2.67;;;1.98;;
26562;SDS011;14217;50.986;5.826;2023-11-21T13:08:34;2.60;;;1.85;;
26562;SDS011;14217;50.986;5.826;2023-11-21T13:13:36;2.17;;;1.38;;
26562;SDS011;14217;50.986;5.826;2023-11-21T13:18:43;2.13;;;1.60;;
26562;SDS011;14217;50.986;5.826;2023-11-21T13:23:45;1.30;;;1.20;;
26562;SDS011;14217;50.986;5.826;2023-11-21T13:28:50;1.80;;;1.30;;
26562;SDS011;14217;50.986;5.826;2023-11-21T13:33:52;1.90;;;1.30;;
26562;SDS011;14217;50.986;5.826;2023-11-21T13:38:58;1.50;;;1.40;;
26562;SDS011;14217;50.986;5.826;2023-11-21T13:44:00;1.27;;;1.10;;
26562;SDS011;14217;50.986;5.826;2023-11-21T13:49:17;1.30;;;1.10;;
26562;SDS011;14217;50.986;5.826;2023-11-21T13:54:22;1.20;;;1.10;;
26562;SDS011;14217;50.986;5.826;2023-11-21T13:59:27;2.10;;;1.30;;
26562;SDS011;14217;50.986;5.826;2023-11-21T14:04:32;1.35;;;1.00;;
26562;SDS011;14217;50.986;5.826;2023-11-21T14:10:03;1.60;;;1.35;;
26562;SDS011;14217;50.986;5.826;2023-11-21T14:15:09;2.03;;;1.70;;
26562;SDS011;14217;50.986;5.826;2023-11-21T14:20:13;9.52;;;2.50;;
26562;SDS011;14217;50.986;5.826;2023-11-21T14:25:19;6.78;;;3.25;;
26562;SDS011;14217;50.986;5.826;2023-11-21T14:30:22;3.53;;;2.70;;
26562;SDS011;14217;50.986;5.826;2023-11-21T14:35:24;5.97;;;2.58;;
26562;SDS011;14217;50.986;5.826;2023-11-21T14:40:28;2.95;;;2.35;;
26562;SDS011;14217;50.986;5.826;2023-11-21T14:45:34;2.40;;;2.00;;
26562;SDS011;14217;50.986;5.826;2023-11-21T14:50:36;4.45;;;2.45;;
26562;SDS011;14217;50.986;5.826;2023-11-21T14:56:00;4.15;;;2.28;;
26562;SDS011;14217;50.986;5.826;2023-11-21T15:01:05;2.95;;;2.40;;
26562;SDS011;14217;50.986;5.826;2023-11-21T15:06:09;3.00;;;2.65;;
26562;SDS011;14217;50.986;5.826;2023-11-21T15:11:28;3.90;;;2.97;;
26562;SDS011;14217;50.986;5.826;2023-11-21T15:16:33;2.88;;;2.13;;
26562;SDS011;14217;50.986;5.826;2023-11-21T15:21:36;3.08;;;2.78;;
26562;SDS011;14217;50.986;5.826;2023-11-21T15:26:38;3.45;;;3.00;;
26562;SDS011;14217;50.986;5.826;2023-11-21T15:31:40;2.88;;;2.17;;
26562;SDS011;14217;50.986;5.826;2023-11-21T15:36:47;3.75;;;2.90;;
26562;SDS011;14217;50.986;5.826;2023-11-21T15:41:52;3.35;;;2.75;;
26562;SDS011;14217;50.986;5.826;2023-11-21T15:46:54;3.78;;;2.38;;
26562;SDS011;14217;50.986;5.826;2023-11-21T15:51:57;2.90;;;2.63;;
26562;SDS011;14217;50.986;5.826;2023-11-21T15:57:01;2.95;;;2.30;;
26562;SDS011;14217;50.986;5.826;2023-11-21T16:02:04;2.90;;;1.73;;
26562;SDS011;14217;50.986;5.826;2023-11-21T16:07:07;2.08;;;1.60;;
26562;SDS011;14217;50.986;5.826;2023-11-21T16:12:10;3.47;;;2.53;;
26562;SDS011;14217;50.986;5.826;2023-11-21T16:17:13;4.32;;;2.58;;
26562;SDS011;14217;50.986;5.826;2023-11-21T16:22:16;3.15;;;1.98;;
26562;SDS011;14217;50.986;5.826;2023-11-21T16:27:18;4.20;;;1.80;;
26562;SDS011;14217;50.986;5.826;2023-11-21T16:32:20;1.80;;;1.70;;
26562;SDS011;14217;50.986;5.826;2023-11-21T16:37:22;3.78;;;2.05;;
26562;SDS011;14217;50.986;5.826;2023-11-21T16:42:24;2.75;;;2.13;;
26562;SDS011;14217;50.986;5.826;2023-11-21T16:47:29;2.60;;;1.77;;
26562;SDS011;14217;50.986;5.826;2023-11-21T16:52:34;2.05;;;1.58;;
26562;SDS011;14217;50.986;5.826;2023-11-21T16:57:36;1.40;;;1.30;;
26562;SDS011;14217;50.986;5.826;2023-11-21T17:02:41;2.47;;;1.77;;
26562;SDS011;14217;50.986;5.826;2023-11-21T17:07:43;4.80;;;1.23;;
26562;SDS011;14217;50.986;5.826;2023-11-21T17:12:45;1.27;;;1.13;;
26562;SDS011;14217;50.986;5.826;2023-11-21T17:17:47;11.85;;;1.60;;
26562;SDS011;14217;50.986;5.826;2023-11-21T17:22:49;2.92;;;2.17;;
26562;SDS011;14217;50.986;5.826;2023-11-21T17:27:52;2.08;;;1.85;;
26562;SDS011;14217;50.986;5.826;2023-11-21T17:32:54;1.77;;;1.67;;
26562;SDS011;14217;50.986;5.826;2023-11-21T17:37:58;1.58;;;1.48;;
26562;SDS011;14217;50.986;5.826;2023-11-21T17:43:01;2.08;;;1.10;;
26562;SDS011;14217;50.986;5.826;2023-11-21T17:48:03;1.92;;;1.48;;
26562;SDS011;14217;50.986;5.826;2023-11-21T17:53:06;2.13;;;1.35;;
26562;SDS011;14217;50.986;5.826;2023-11-21T17:58:09;1.73;;;1.63;;
26562;SDS011;14217;50.986;5.826;2023-11-21T18:03:11;2.50;;;1.45;;
26562;SDS011;14217;50.986;5.826;2023-11-21T18:08:13;2.40;;;1.67;;
26562;SDS011;14217;50.986;5.826;2023-11-21T18:13:16;1.77;;;1.30;;
26562;SDS011;14217;50.986;5.826;2023-11-21T18:18:18;2.28;;;1.48;;
26562;SDS011;14217;50.986;5.826;2023-11-21T18:23:21;1.67;;;1.50;;
26562;SDS011;14217;50.986;5.826;2023-11-21T18:28:23;1.42;;;1.30;;
26562;SDS011;14217;50.986;5.826;2023-11-21T18:33:25;1.27;;;1.10;;
26562;SDS011;14217;50.986;5.826;2023-11-21T18:38:27;1.27;;;1.17;;
26562;SDS011;14217;50.986;5.826;2023-11-21T18:43:29;1.45;;;1.20;;
26562;SDS011;14217;50.986;5.826;2023-11-21T18:48:31;1.35;;;1.00;;
26562;SDS011;14217;50.986;5.826;2023-11-21T18:53:33;1.60;;;1.33;;
26562;SDS011;14217;50.986;5.826;2023-11-21T18:58:36;7.40;;;1.42;;
26562;SDS011;14217;50.986;5.826;2023-11-21T19:03:41;0.95;;;0.80;;
26562;SDS011;14217;50.986;5.826;2023-11-21T19:08:43;1.67;;;1.00;;
26562;SDS011;14217;50.986;5.826;2023-11-21T19:13:45;1.25;;;1.00;;
26562;SDS011;14217;50.986;5.826;2023-11-21T19:18:48;1.10;;;0.98;;
26562;SDS011;14217;50.986;5.826;2023-11-21T19:23:50;1.23;;;0.85;;
26562;SDS011;14217;50.986;5.826;2023-11-21T19:28:53;2.17;;;1.23;;
26562;SDS011;14217;50.986;5.826;2023-11-21T19:33:55;1.08;;;0.98;;
26562;SDS011;14217;50.986;5.826;2023-11-21T19:38:57;1.15;;;1.02;;
26562;SDS011;14217;50.986;5.826;2023-11-21T19:43:59;2.47;;;1.30;;
26562;SDS011;14217;50.986;5.826;2023-11-21T19:49:03;1.30;;;1.20;;
26562;SDS011;14217;50.986;5.826;2023-11-21T19:54:05;2.08;;;1.08;;
26562;SDS011;14217;50.986;5.826;2023-11-21T19:59:09;1.10;;;1.00;;
26562;SDS011;14217;50.986;5.826;2023-11-21T20:04:11;1.02;;;0.88;;
26562;SDS011;14217;50.986;5.826;2023-11-21T20:09:13;1.33;;;0.98;;
26562;SDS011;14217;50.986;5.826;2023-11-21T20:14:16;1.08;;;0.77;;
26562;SDS011;14217;50.986;5.826;2023-11-21T20:19:19;0.75;;;0.73;;
26562;SDS011;14217;50.986;5.826;2023-11-21T20:24:21;0.80;;;0.80;;
26562;SDS011;14217;50.986;5.826;2023-11-21T20:29:23;0.98;;;0.90;;
26562;SDS011;14217;50.986;5.826;2023-11-21T20:34:26;0.90;;;0.70;;
26562;SDS011;14217;50.986;5.826;2023-11-21T20:39:28;1.27;;;0.90;;
26562;SDS011;14217;50.986;5.826;2023-11-21T20:44:30;1.02;;;0.88;;
26562;SDS011;14217;50.986;5.826;2023-11-21T20:49:32;2.35;;;0.98;;
26562;SDS011;14217;50.986;5.826;2023-11-21T20:54:47;1.20;;;1.00;;
26562;SDS011;14217;50.986;5.826;2023-11-21T20:59:50;0.57;;;0.57;;
26562;SDS011;14217;50.986;5.826;2023-11-21T21:04:53;0.65;;;0.57;;
26562;SDS011;14217;50.986;5.826;2023-11-21T21:09:55;1.40;;;0.70;;
26562;SDS011;14217;50.986;5.826;2023-11-21T21:14:57;1.08;;;0.90;;
26562;SDS011;14217;50.986;5.826;2023-11-21T21:19:59;1.23;;;0.82;;
26562;SDS011;14217;50.986;5.826;2023-11-21T21:25:01;0.60;;;0.60;;
26562;SDS011;14217;50.986;5.826;2023-11-21T21:30:04;0.60;;;0.60;;
26562;SDS011;14217;50.986;5.826;2023-11-21T21:35:07;1.15;;;0.63;;
26562;SDS011;14217;50.986;5.826;2023-11-21T21:40:09;1.40;;;1.15;;
26562;SDS011;14217;50.986;5.826;2023-11-21T21:45:12;1.42;;;0.95;;
26562;SDS011;14217;50.986;5.826;2023-11-21T21:50:15;1.67;;;1.17;;
26562;SDS011;14217;50.986;5.826;2023-11-21T21:55:18;3.85;;;1.17;;
26562;SDS011;14217;50.986;5.826;2023-11-21T22:00:20;3.00;;;1.10;;
26562;SDS011;14217;50.986;5.826;2023-11-21T22:05:22;0.80;;;0.77;;
26562;SDS011;14217;50.986;5.826;2023-11-21T22:10:24;2.47;;;1.10;;
26562;SDS011;14217;50.986;5.826;2023-11-21T22:15:28;0.70;;;0.70;;
26562;SDS011;14217;50.986;5.826;2023-11-21T22:20:30;1.73;;;1.20;;
26562;SDS011;14217;50.986;5.826;2023-11-21T22:25:32;0.70;;;0.57;;
26562;SDS011;14217;50.986;5.826;2023-11-21T22:30:36;3.10;;;0.98;;
26562;SDS011;14217;50.986;5.826;2023-11-21T22:35:39;0.85;;;0.60;;
26562;SDS011;14217;50.986;5.826;2023-11-21T22:40:46;2.67;;;1.02;;
26562;SDS011;14217;50.986;5.826;2023-11-21T22:45:48;0.82;;;0.80;;
26562;SDS011;14217;50.986;5.826;2023-11-21T22:50:50;1.17;;;1.08;;
26562;SDS011;14217;50.986;5.826;2023-11-21T22:55:52;1.48;;;0.98;;
26562;SDS011;14217;50.986;5.826;2023-11-21T23:00:55;1.25;;;0.82;;
26562;SDS011;14217;50.986;5.826;2023-11-21T23:05:59;1.00;;;0.90;;
26562;SDS011;14217;50.986;5.826;2023-11-21T23:11:01;1.75;;;1.10;;
26562;SDS011;14217;50.986;5.826;2023-11-21T23:16:03;0.80;;;0.77;;
26562;SDS011;14217;50.986;5.826;2023-11-21T23:21:05;0.77;;;0.60;;
26562;SDS011;14217;50.986;5.826;2023-11-21T23:26:14;1.50;;;0.77;;
26562;SDS011;14217;50.986;5.826;2023-11-21T23:31:17;0.77;;;0.77;;
26562;SDS011;14217;50.986;5.826;2023-11-21T23:36:20;0.70;;;0.65;;
26562;SDS011;14217;50.986;5.826;2023-11-21T23:41:24;0.70;;;0.60;;
26562;SDS011;14217;50.986;5.826;2023-11-21T23:46:26;1.10;;;0.93;;
26562;SDS011;14217;50.986;5.826;2023-11-21T23:51:28;0.73;;;0.73;;
26562;SDS011;14217;50.986;5.826;2023-11-21T23:56:31;0.88;;;0.80;;
